Time;durP1;ratioP1;P1;durP2;ratioP2;P2;SDS_P1;SDS_P2;PMS_P1;PMS_P2;Temp;Humidity;BMP_temperature;BMP_pressure;BME280_temperature;BME280_humidity;BME280_pressure;Samples;Min_cycle;Max_cycle;Signal;HPM_P1;HPM_P2
2022/11/01 00:00:16;;;;;;;26.67;10.90;;;13.60;93.40;;;;;;5006856;28;20831;-69
2022/11/01 00:02:41;;;;;;;18.47;9.67;;;13.50;93.20;;;;;;5006206;28;20224;-70
2022/11/01 00:05:07;;;;;;;21.23;9.30;;;13.50;93.10;;;;;;5013611;28;20437;-69
2022/11/01 00:07:33;;;;;;;17.60;10.20;;;13.60;92.90;;;;;;5012019;28;20292;-70
2022/11/01 00:09:58;;;;;;;16.33;9.53;;;13.70;92.70;;;;;;5008861;28;20975;-70
2022/11/01 00:12:24;;;;;;;16.20;8.70;;;13.60;92.50;;;;;;5007309;28;20214;-69
2022/11/01 00:14:49;;;;;;;16.73;9.50;;;13.60;92.70;;;;;;5011460;28;20231;-69
2022/11/01 00:17:15;;;;;;;19.50;9.47;;;13.70;92.50;;;;;;5006715;28;20277;-69
2022/11/01 00:19:40;;;;;;;14.63;9.10;;;13.70;92.30;;;;;;5011590;28;20229;-69
2022/11/01 00:22:06;;;;;;;20.50;10.03;;;13.70;92.10;;;;;;5010021;28;20289;-70
2022/11/01 00:24:32;;;;;;;17.43;9.77;;;13.70;92.00;;;;;;5012955;28;20190;-70
2022/11/01 00:26:58;;;;;;;24.23;9.10;;;13.80;91.90;;;;;;5012080;28;20217;-70
2022/11/01 00:29:24;;;;;;;18.27;10.07;;;13.90;91.70;;;;;;5011563;28;20647;-70
2022/11/01 00:31:49;;;;;;;15.60;8.97;;;14.00;91.70;;;;;;5008007;28;20417;-70
2022/11/01 00:34:16;;;;;;;19.60;9.93;;;14.00;91.70;;;;;;5009587;28;20202;-70
2022/11/01 00:36:41;;;;;;;21.37;9.70;;;14.00;91.80;;;;;;5011850;28;20272;-69
2022/11/01 00:39:07;;;;;;;18.03;10.17;;;14.00;91.60;;;;;;5006886;28;20902;-70
2022/11/01 00:41:33;;;;;;;16.37;10.43;;;14.00;91.40;;;;;;5012334;28;20194;-69
2022/11/01 00:43:59;;;;;;;14.90;9.10;;;13.90;91.60;;;;;;5013688;28;20244;-69
2022/11/01 00:46:25;;;;;;;15.07;9.00;;;14.00;91.80;;;;;;5014605;28;20569;-69
2022/11/01 00:48:50;;;;;;;14.50;9.33;;;14.00;91.70;;;;;;5013416;28;20182;-69
2022/11/01 00:51:16;;;;;;;20.77;12.03;;;14.00;91.70;;;;;;5013140;28;20205;-69
2022/11/01 00:53:41;;;;;;;14.87;10.60;;;13.80;91.70;;;;;;5009828;28;20213;-68
2022/11/01 00:56:07;;;;;;;18.63;11.20;;;13.80;92.10;;;;;;5008198;28;20555;-69
2022/11/01 00:58:33;;;;;;;17.53;10.43;;;13.80;92.20;;;;;;5019828;28;20200;-69
2022/11/01 01:00:59;;;;;;;15.13;9.87;;;13.80;92.20;;;;;;5013163;28;20190;-68
2022/11/01 01:03:24;;;;;;;18.87;10.90;;;13.80;92.20;;;;;;5009305;28;20280;-68
2022/11/01 01:05:51;;;;;;;18.63;11.13;;;13.80;92.20;;;;;;5006774;28;20285;-68
2022/11/01 01:08:17;;;;;;;19.50;10.97;;;13.70;92.30;;;;;;5013421;28;20186;-68
2022/11/01 01:10:43;;;;;;;22.70;11.03;;;13.60;92.50;;;;;;5009126;28;20958;-68
2022/11/01 01:13:09;;;;;;;23.83;12.60;;;13.70;92.70;;;;;;5010492;28;20543;-68
2022/11/01 01:15:36;;;;;;;20.60;9.97;;;13.70;92.60;;;;;;5009908;28;20582;-68
2022/11/01 01:18:01;;;;;;;25.43;10.10;;;13.70;92.60;;;;;;5013025;28;20183;-69
2022/11/01 01:20:27;;;;;;;18.77;9.97;;;13.70;92.50;;;;;;5008171;28;20425;-69
2022/11/01 01:22:52;;;;;;;18.13;9.97;;;13.70;92.20;;;;;;5010085;28;20210;-70
2022/11/01 01:25:19;;;;;;;14.60;9.20;;;13.70;92.10;;;;;;5006438;28;20556;-70
2022/11/01 01:27:45;;;;;;;18.43;10.80;;;13.70;92.20;;;;;;5011252;28;20327;-70
2022/11/01 01:30:11;;;;;;;16.30;9.00;;;13.70;92.20;;;;;;5007727;28;21228;-71
2022/11/01 01:32:36;;;;;;;15.80;7.73;;;13.70;92.20;;;;;;5008762;28;20218;-70
2022/11/01 01:35:03;;;;;;;19.70;9.60;;;13.70;92.20;;;;;;5012205;28;20455;-70
2022/11/01 01:37:28;;;;;;;13.63;8.53;;;13.70;92.10;;;;;;5009190;28;20190;-70
2022/11/01 01:39:54;;;;;;;17.80;10.00;;;13.70;92.20;;;;;;5011933;28;20437;-69
2022/11/01 01:42:37;;;;;;;13.33;10.30;;;13.80;92.20;;;;;;5004453;28;20329;-69
2022/11/01 01:45:21;;;;;;;14.07;8.33;;;13.70;91.80;;;;;;5008050;28;20198;-69
2022/11/01 01:47:51;;;;;;;16.20;8.33;;;13.80;91.50;;;;;;5006406;28;20512;-69
2022/11/01 01:50:25;;;;;;;16.00;9.10;;;13.80;91.40;;;;;;5009084;28;20459;-69
2022/11/01 01:53:12;;;;;;;17.40;9.40;;;13.80;91.10;;;;;;5009651;28;21345;-69
2022/11/01 01:55:48;;;;;;;16.70;9.30;;;13.90;91.00;;;;;;5009483;28;20429;-69
2022/11/01 01:58:16;;;;;;;15.07;8.67;;;14.00;90.80;;;;;;5011590;28;20525;-69
2022/11/01 02:00:43;;;;;;;18.33;8.97;;;13.90;90.70;;;;;;5011467;28;20927;-69
2022/11/01 02:03:10;;;;;;;17.50;8.40;;;13.90;91.10;;;;;;5006900;28;20464;-70
2022/11/01 02:05:56;;;;;;;19.37;8.50;;;14.10;90.70;;;;;;5007291;28;20430;-70
2022/11/01 02:08:26;;;;;;;15.00;8.47;;;14.10;90.50;;;;;;5014266;28;20449;-70
2022/11/01 02:10:55;;;;;;;14.13;8.43;;;14.10;90.30;;;;;;5016017;28;20441;-70
2022/11/01 02:13:20;;;;;;;16.40;9.23;;;14.10;90.10;;;;;;5017909;28;20481;-71
2022/11/01 02:16:13;;;;;;;13.43;8.73;;;14.10;90.10;;;;;;5017321;28;20686;-69
2022/11/01 02:18:52;;;;;;;21.70;9.37;;;14.10;90.30;;;;;;5012258;28;20220;-70
2022/11/01 02:21:20;;;;;;;19.73;8.60;;;14.00;90.40;;;;;;5007486;28;20417;-70
2022/11/01 02:24:00;;;;;;;16.60;8.60;;;14.00;90.70;;;;;;5006666;28;20467;-69
2022/11/01 02:26:55;;;;;;;15.90;9.33;;;14.10;90.80;;;;;;5005958;28;20559;-70
2022/11/01 02:29:50;;;;;;;14.20;8.50;;;14.20;90.70;;;;;;5008024;28;21054;-70
2022/11/01 02:32:45;;;;;;;19.90;8.90;;;14.20;90.50;;;;;;5007428;28;20464;-70
2022/11/01 02:35:23;;;;;;;14.27;8.17;;;14.20;90.50;;;;;;5011250;28;20513;-70
2022/11/01 02:37:51;;;;;;;16.90;9.03;;;14.20;90.30;;;;;;5007642;28;20965;-69
2022/11/01 02:40:26;;;;;;;19.73;9.10;;;14.20;90.00;;;;;;5012074;28;20417;-69
2022/11/01 02:42:57;;;;;;;16.20;8.60;;;14.20;89.90;;;;;;5005989;28;20476;-70
2022/11/01 02:45:40;;;;;;;20.50;9.77;;;14.40;89.70;;;;;;5010421;28;20424;-69
2022/11/01 02:48:07;;;;;;;16.00;8.97;;;14.30;89.50;;;;;;5011137;28;20837;-69
2022/11/01 02:50:43;;;;;;;16.83;9.00;;;14.40;89.30;;;;;;5011406;28;20416;-68
2022/11/01 02:53:09;;;;;;;16.37;8.13;;;14.50;88.60;;;;;;5002532;28;20469;-69
2022/11/01 02:55:35;;;;;;;15.17;8.27;;;14.50;88.60;;;;;;5008867;28;20452;-69
2022/11/01 02:58:10;;;;;;;15.50;9.20;;;14.50;88.40;;;;;;5010381;28;20428;-69
2022/11/01 03:00:36;;;;;;;14.57;8.10;;;14.40;88.30;;;;;;5005134;28;20656;-70
2022/11/01 03:03:08;;;;;;;18.53;8.50;;;14.40;88.40;;;;;;5002094;28;20458;-69
2022/11/01 03:05:45;;;;;;;16.17;8.60;;;14.40;88.30;;;;;;5010786;28;20186;-69
2022/11/01 03:08:16;;;;;;;14.80;8.10;;;14.40;88.10;;;;;;5000734;28;20455;-70
2022/11/01 03:11:04;;;;;;;16.50;7.83;;;14.40;88.00;;;;;;5005604;28;20476;-70
2022/11/01 03:13:38;;;;;;;21.10;8.13;;;14.30;88.30;;;;;;5005197;28;20500;-70
2022/11/01 03:16:18;;;;;;;12.87;7.50;;;14.40;88.10;;;;;;5010002;28;20416;-70
2022/11/01 03:19:13;;;;;;;22.20;9.00;;;14.40;87.80;;;;;;5009551;28;20748;-70
2022/11/01 03:21:45;;;;;;;19.10;9.77;;;14.30;87.70;;;;;;5008111;28;20467;-70
2022/11/01 03:24:49;;;;;;;17.83;7.70;;;14.40;87.70;;;;;;5007325;28;20512;-69
2022/11/01 03:27:26;;;;;;;12.43;7.43;;;14.40;87.30;;;;;;5008657;28;20874;-69
2022/11/01 03:30:17;;;;;;;13.40;7.53;;;14.40;87.10;;;;;;5012412;28;20427;-70
2022/11/01 03:32:48;;;;;;;12.50;8.00;;;14.40;87.10;;;;;;5015291;28;20650;-70
2022/11/01 03:35:19;;;;;;;13.67;7.30;;;14.50;87.00;;;;;;5015328;28;20490;-69
2022/11/01 03:37:47;;;;;;;12.20;7.20;;;14.50;87.10;;;;;;5011744;28;20432;-69
2022/11/01 03:40:16;;;;;;;10.70;7.23;;;14.60;86.90;;;;;;5011423;28;20948;-69
2022/11/01 03:42:46;;;;;;;14.77;7.67;;;14.60;86.80;;;;;;5007802;28;20986;-69
2022/11/01 03:45:15;;;;;;;18.20;7.37;;;14.60;86.60;;;;;;5014490;28;20912;-69
2022/11/01 03:47:41;;;;;;;15.67;7.80;;;14.60;86.60;;;;;;5011347;28;20501;-69
2022/11/01 03:50:14;;;;;;;15.33;7.40;;;14.60;86.50;;;;;;5015191;28;20426;-70
2022/11/01 03:52:40;;;;;;;12.97;7.00;;;14.60;86.60;;;;;;5009524;28;20684;-69
2022/11/01 03:55:18;;;;;;;13.97;7.50;;;14.60;86.50;;;;;;5010104;28;21282;-69
2022/11/01 03:57:50;;;;;;;15.53;7.00;;;14.70;86.20;;;;;;5009125;28;20445;-68
2022/11/01 04:00:23;;;;;;;10.43;6.70;;;14.70;85.90;;;;;;5007882;28;20429;-69
2022/11/01 04:02:50;;;;;;;13.87;6.73;;;14.80;85.70;;;;;;5005892;28;20559;-69
2022/11/01 04:05:17;;;;;;;13.10;6.90;;;14.80;85.50;;;;;;5010641;28;20438;-70
2022/11/01 04:07:43;;;;;;;10.63;6.23;;;14.90;85.20;;;;;;5012121;28;21006;-69
2022/11/01 04:10:09;;;;;;;10.40;5.93;;;14.90;84.90;;;;;;5008340;28;20415;-69
2022/11/01 04:12:34;;;;;;;15.00;6.57;;;15.00;84.70;;;;;;5009943;28;20710;-70
2022/11/01 04:20:34;;;;;;;14.43;7.13;;;15.20;83.70;;;;;;5010753;28;20561;-70
2022/11/01 04:23:07;;;;;;;14.00;5.80;;;15.20;83.40;;;;;;5004420;28;20475;-70
2022/11/01 04:25:40;;;;;;;9.33;5.50;;;15.30;83.10;;;;;;5009656;28;20481;-70
2022/11/01 04:28:06;;;;;;;11.73;5.47;;;15.40;82.80;;;;;;5011264;28;20503;-69
2022/11/01 04:30:32;;;;;;;10.63;5.30;;;15.50;82.80;;;;;;5011597;28;20835;-70
2022/11/01 04:32:57;;;;;;;14.73;5.73;;;15.60;81.80;;;;;;5010087;28;20206;-70
2022/11/01 04:35:23;;;;;;;12.23;5.33;;;15.90;80.60;;;;;;5012593;28;20193;-70
2022/11/01 04:37:56;;;;;;;12.33;5.30;;;16.00;80.50;;;;;;5012983;28;20196;-70
2022/11/01 04:40:21;;;;;;;11.60;4.63;;;16.10;79.50;;;;;;5008292;28;20189;-70
2022/11/01 04:42:47;;;;;;;12.63;5.20;;;16.30;78.40;;;;;;4995608;28;20978;-70
2022/11/01 04:45:12;;;;;;;8.60;4.37;;;16.60;77.40;;;;;;5007052;28;20190;-69
2022/11/01 04:47:38;;;;;;;8.03;4.27;;;16.60;77.10;;;;;;5011597;28;20205;-69
2022/11/01 04:50:04;;;;;;;8.37;3.90;;;16.80;76.40;;;;;;5007325;28;20216;-69
2022/11/01 04:52:30;;;;;;;8.03;3.93;;;16.90;75.70;;;;;;5009833;28;20228;-70
2022/11/01 04:54:55;;;;;;;7.30;3.53;;;17.10;75.20;;;;;;5013339;28;20425;-71
2022/11/01 04:57:24;;;;;;;7.90;4.20;;;17.20;74.90;;;;;;5013176;28;20440;-71
2022/11/01 04:59:54;;;;;;;10.10;3.70;;;17.20;74.60;;;;;;5010209;28;20190;-69
2022/11/01 05:02:21;;;;;;;7.00;3.30;;;17.30;74.30;;;;;;5007228;28;20480;-69
2022/11/01 05:04:47;;;;;;;8.83;3.27;;;17.40;74.30;;;;;;5011840;28;20511;-70
2022/11/01 05:07:13;;;;;;;7.90;3.60;;;17.40;74.20;;;;;;5012704;28;20955;-70
2022/11/01 05:09:39;;;;;;;8.73;4.00;;;17.40;74.30;;;;;;5008211;28;20193;-69
2022/11/01 05:12:05;;;;;;;6.37;3.47;;;17.40;74.30;;;;;;5011365;28;21108;-69
2022/11/01 05:14:31;;;;;;;8.30;3.87;;;17.40;74.30;;;;;;5006213;28;20180;-69
2022/11/01 05:16:57;;;;;;;10.90;4.07;;;17.40;74.60;;;;;;5005802;28;21203;-69
2022/11/01 05:19:23;;;;;;;7.40;4.10;;;17.30;74.90;;;;;;5011046;28;20182;-70
2022/11/01 05:21:49;;;;;;;10.40;3.43;;;17.30;75.10;;;;;;5012380;28;20942;-69
2022/11/01 05:24:14;;;;;;;10.13;3.70;;;17.30;75.20;;;;;;5006654;28;20656;-69
2022/11/01 05:26:40;;;;;;;7.83;3.63;;;17.30;75.50;;;;;;5010091;28;20468;-69
2022/11/01 05:29:06;;;;;;;8.07;3.33;;;17.20;75.50;;;;;;5010600;28;20220;-69
2022/11/01 05:31:32;;;;;;;5.70;3.20;;;17.20;76.10;;;;;;5012405;28;20966;-69
2022/11/01 05:33:57;;;;;;;6.37;4.00;;;17.20;75.90;;;;;;5009861;28;20251;-69
2022/11/01 05:36:23;;;;;;;6.60;3.67;;;17.20;76.20;;;;;;5011899;28;20189;-69
2022/11/01 05:38:48;;;;;;;4.83;2.67;;;17.20;76.50;;;;;;5012898;28;20284;-70
2022/11/01 05:41:14;;;;;;;5.40;2.50;;;17.10;77.10;;;;;;5007710;28;20183;-70
2022/11/01 05:43:39;;;;;;;7.63;2.67;;;17.10;77.70;;;;;;5008996;28;20601;-68
2022/11/01 05:46:06;;;;;;;7.93;2.50;;;17.20;78.00;;;;;;5009353;28;20194;-69
2022/11/01 05:48:33;;;;;;;12.83;2.50;;;17.10;78.60;;;;;;5013225;28;20188;-69
2022/11/01 05:50:59;;;;;;;4.03;2.40;;;17.00;79.60;;;;;;5012648;28;20421;-69
2022/11/01 05:53:24;;;;;;;6.23;2.90;;;17.00;80.90;;;;;;5008378;28;20819;-68
2022/11/01 05:55:50;;;;;;;6.43;2.70;;;16.80;82.40;;;;;;5013562;28;20447;-69
2022/11/01 05:58:16;;;;;;;4.53;2.60;;;16.60;83.40;;;;;;5014376;28;20193;-70
2022/11/01 06:00:41;;;;;;;5.97;2.40;;;16.60;84.10;;;;;;5009712;28;20192;-71
2022/11/01 06:03:07;;;;;;;4.73;2.80;;;16.40;84.70;;;;;;5014410;28;20260;-70
2022/11/01 06:05:33;;;;;;;9.80;3.00;;;16.40;85.00;;;;;;5012270;28;20195;-69
2022/11/01 06:08:00;;;;;;;2.80;2.00;;;16.40;85.50;;;;;;5011092;28;20211;-70
2022/11/01 06:10:26;;;;;;;7.67;2.60;;;16.30;85.70;;;;;;5007445;28;20453;-70
2022/11/01 06:12:52;;;;;;;6.17;2.43;;;16.40;86.00;;;;;;5009408;28;20538;-69
2022/11/01 06:15:17;;;;;;;7.30;2.40;;;16.30;86.20;;;;;;5016091;28;20425;-69
2022/11/01 06:17:43;;;;;;;4.73;2.20;;;16.20;86.30;;;;;;5015697;28;20198;-70
2022/11/01 06:20:10;;;;;;;7.20;2.30;;;16.30;86.80;;;;;;5009773;28;20225;-69
2022/11/01 06:22:35;;;;;;;4.30;2.47;;;16.20;86.80;;;;;;5006765;28;20361;-70
2022/11/01 06:25:01;;;;;;;3.63;1.70;;;16.20;87.00;;;;;;5013472;28;20908;-69
2022/11/01 06:27:27;;;;;;;3.00;1.90;;;16.30;87.00;;;;;;5013496;28;20216;-69
2022/11/01 06:29:53;;;;;;;2.70;1.53;;;16.30;87.00;;;;;;5010616;28;20181;-68
2022/11/01 06:32:18;;;;;;;4.73;1.40;;;16.20;87.30;;;;;;5009327;28;20432;-69
2022/11/01 06:34:44;;;;;;;3.17;2.00;;;16.20;87.40;;;;;;5011117;28;20410;-70
2022/11/01 06:37:09;;;;;;;3.00;1.73;;;16.20;87.60;;;;;;5006972;28;20189;-69
2022/11/01 06:39:35;;;;;;;2.53;1.57;;;16.20;87.70;;;;;;5010509;28;20545;-70
2022/11/01 06:42:01;;;;;;;4.30;1.87;;;16.20;87.70;;;;;;5010827;28;20275;-69
2022/11/01 06:44:26;;;;;;;4.93;1.70;;;16.20;87.80;;;;;;5003580;28;20252;-69
2022/11/01 06:46:53;;;;;;;2.87;1.70;;;16.10;88.10;;;;;;5009685;28;20204;-69
2022/11/01 06:49:19;;;;;;;3.83;1.57;;;16.10;88.30;;;;;;5009299;28;20257;-69
2022/11/01 06:51:45;;;;;;;4.27;1.53;;;16.10;88.30;;;;;;5004360;28;21076;-70
2022/11/01 06:54:11;;;;;;;3.03;1.47;;;16.00;88.40;;;;;;5008896;28;20502;-69
2022/11/01 06:56:36;;;;;;;2.70;1.87;;;16.00;88.90;;;;;;5009170;28;20188;-70
2022/11/01 06:59:02;;;;;;;2.70;1.40;;;16.00;88.70;;;;;;5013060;28;20232;-69
2022/11/01 07:01:28;;;;;;;2.17;1.60;;;16.00;88.40;;;;;;5010868;28;20260;-69
2022/11/01 07:03:54;;;;;;;2.80;1.70;;;16.00;88.90;;;;;;5005729;28;20543;-69
2022/11/01 07:06:20;;;;;;;6.53;1.90;;;16.00;89.00;;;;;;5008571;28;20197;-69
2022/11/01 07:08:46;;;;;;;2.20;1.40;;;16.10;88.70;;;;;;5010774;28;20181;-69
2022/11/01 07:11:12;;;;;;;1.97;1.40;;;16.10;88.30;;;;;;5008638;28;20421;-69
2022/11/01 07:13:37;;;;;;;2.03;1.20;;;16.10;88.00;;;;;;5008819;28;20324;-69
2022/11/01 07:16:04;;;;;;;1.83;1.33;;;16.10;87.80;;;;;;5012850;28;20261;-69
2022/11/01 07:18:30;;;;;;;3.03;1.60;;;16.20;87.80;;;;;;5008753;28;20173;-69
2022/11/01 07:20:56;;;;;;;3.33;1.60;;;16.10;88.30;;;;;;5008069;28;20415;-70
2022/11/01 07:23:22;;;;;;;2.70;1.70;;;16.20;88.70;;;;;;5002162;28;20994;-70
2022/11/01 07:25:52;;;;;;;2.10;1.30;;;16.10;88.90;;;;;;5010090;28;20448;-69
2022/11/01 07:28:18;;;;;;;7.40;1.97;;;16.20;88.90;;;;;;5009804;28;20209;-70
2022/11/01 07:30:52;;;;;;;3.73;1.40;;;16.30;88.60;;;;;;5004503;28;20417;-69
2022/11/01 07:33:18;;;;;;;2.40;1.30;;;16.30;88.40;;;;;;5006297;28;20887;-71
2022/11/01 07:35:44;;;;;;;3.80;1.40;;;16.30;88.30;;;;;;5017782;28;20551;-72
2022/11/01 07:38:10;;;;;;;3.07;1.70;;;16.30;88.00;;;;;;5004752;28;20447;-72
2022/11/01 07:40:36;;;;;;;2.57;1.50;;;16.40;88.30;;;;;;5013580;28;20413;-71
2022/11/01 07:43:03;;;;;;;2.70;1.80;;;16.40;88.00;;;;;;5019066;28;20571;-73
2022/11/01 07:45:31;;;;;;;3.00;1.30;;;16.20;88.40;;;;;;5023773;28;20483;-71
2022/11/01 07:48:01;;;;;;;2.30;1.47;;;16.20;88.90;;;;;;5026604;28;20459;-72
2022/11/01 07:50:27;;;;;;;3.27;1.60;;;16.30;88.60;;;;;;5017430;28;20421;-71
2022/11/01 07:53:00;;;;;;;2.23;1.77;;;16.30;88.30;;;;;;5010603;28;20467;-71
2022/11/01 07:55:25;;;;;;;7.87;1.90;;;16.40;88.30;;;;;;5012149;28;20485;-72
2022/11/01 07:57:51;;;;;;;1.80;1.50;;;16.50;88.40;;;;;;5005136;28;20444;-71
2022/11/01 08:00:17;;;;;;;2.50;1.30;;;16.50;88.40;;;;;;5007415;28;20197;-72
2022/11/01 08:02:42;;;;;;;2.90;1.50;;;16.50;88.40;;;;;;5004493;28;20288;-71
2022/11/01 08:05:09;;;;;;;2.23;1.27;;;16.60;87.70;;;;;;5009337;28;20239;-72
2022/11/01 08:07:38;;;;;;;3.17;1.30;;;16.60;87.30;;;;;;5003967;28;20209;-72
2022/11/01 08:10:06;;;;;;;2.50;1.70;;;16.80;87.00;;;;;;5008193;28;20958;-72
2022/11/01 08:12:31;;;;;;;3.33;1.40;;;16.70;87.00;;;;;;5003664;28;20474;-70
2022/11/01 08:14:57;;;;;;;2.00;1.27;;;16.80;86.80;;;;;;5009595;28;20436;-72
2022/11/01 08:17:22;;;;;;;2.83;1.43;;;16.90;86.20;;;;;;5010072;28;20274;-73
2022/11/01 08:19:48;;;;;;;1.80;1.30;;;16.90;86.00;;;;;;5011939;28;20212;-74
2022/11/01 08:22:13;;;;;;;3.03;1.10;;;17.00;85.20;;;;;;5005251;28;20214;-72
2022/11/01 08:24:39;;;;;;;2.07;1.40;;;17.00;84.70;;;;;;5008046;28;20254;-72
2022/11/01 08:27:04;;;;;;;1.67;1.20;;;17.10;84.60;;;;;;5005296;28;20221;-72
2022/11/01 08:29:30;;;;;;;1.77;1.23;;;17.10;84.30;;;;;;5010993;28;20192;-72
2022/11/01 08:31:56;;;;;;;4.20;1.40;;;17.20;84.10;;;;;;5006372;28;20186;-71
2022/11/01 08:34:21;;;;;;;5.10;1.23;;;17.20;84.00;;;;;;5002881;28;20212;-74
2022/11/01 08:36:47;;;;;;;1.70;1.10;;;17.20;84.10;;;;;;5011958;28;20190;-72
2022/11/01 08:39:12;;;;;;;1.80;1.50;;;17.10;84.30;;;;;;5012547;28;20220;-73
2022/11/01 08:41:38;;;;;;;1.20;0.90;;;17.20;84.30;;;;;;5010414;28;20562;-73
2022/11/01 08:44:04;;;;;;;1.43;1.10;;;17.20;84.10;;;;;;5008331;28;20212;-73
2022/11/01 08:46:29;;;;;;;1.30;1.00;;;17.20;84.00;;;;;;5009816;28;20209;-74
2022/11/01 08:48:57;;;;;;;3.00;1.37;;;17.30;83.80;;;;;;5012677;28;20649;-72
2022/11/01 08:51:24;;;;;;;3.17;1.30;;;17.40;83.80;;;;;;5012625;28;20266;-72
2022/11/01 08:53:56;;;;;;;3.53;1.10;;;17.40;84.10;;;;;;5006499;28;20461;-74
2022/11/01 08:56:23;;;;;;;3.63;2.50;;;17.50;83.00;;;;;;5012089;28;20760;-74
2022/11/01 08:58:50;;;;;;;2.13;1.40;;;17.40;82.80;;;;;;5007946;28;20897;-72
2022/11/01 09:01:16;;;;;;;1.67;1.33;;;17.40;82.80;;;;;;5013440;28;20537;-73
2022/11/01 09:03:41;;;;;;;1.60;1.13;;;17.40;82.70;;;;;;5006493;28;20983;-74
2022/11/01 09:06:07;;;;;;;3.50;1.40;;;17.40;82.80;;;;;;5012860;28;20193;-73
2022/11/01 09:08:33;;;;;;;1.83;1.50;;;17.50;82.40;;;;;;5007846;28;20213;-73
2022/11/01 09:10:58;;;;;;;2.43;1.30;;;17.40;82.70;;;;;;5011806;28;20216;-73
2022/11/01 09:13:24;;;;;;;1.73;1.30;;;17.40;83.00;;;;;;5008530;28;20210;-72
2022/11/01 09:15:50;;;;;;;2.60;1.33;;;17.50;82.70;;;;;;5014348;28;20195;-73
2022/11/01 09:18:16;;;;;;;1.60;1.07;;;17.50;82.50;;;;;;5012926;28;20214;-71
2022/11/01 09:20:42;;;;;;;1.73;1.33;;;17.50;82.50;;;;;;5011927;28;20909;-72
2022/11/01 09:23:08;;;;;;;2.13;1.40;;;17.60;82.10;;;;;;5011426;28;20253;-72
2022/11/01 09:25:33;;;;;;;1.60;1.13;;;17.60;81.70;;;;;;5011070;28;20277;-74
2022/11/01 09:27:59;;;;;;;1.90;1.40;;;17.60;81.70;;;;;;5012303;28;20746;-71
2022/11/01 09:30:25;;;;;;;3.10;1.50;;;17.60;81.80;;;;;;5014871;28;20240;-71
2022/11/01 09:32:51;;;;;;;1.77;1.20;;;17.70;81.70;;;;;;5009916;28;20241;-72
2022/11/01 09:35:19;;;;;;;1.77;1.10;;;17.80;81.40;;;;;;5011095;28;20913;-72
2022/11/01 09:37:45;;;;;;;2.87;1.30;;;17.80;81.10;;;;;;5012715;28;20635;-72
2022/11/01 09:40:13;;;;;;;1.37;1.30;;;17.90;80.60;;;;;;5009301;28;20501;-72
2022/11/01 09:42:42;;;;;;;1.97;1.30;;;17.90;80.30;;;;;;5006931;28;20222;-73
2022/11/01 09:45:16;;;;;;;3.60;1.20;;;18.00;79.70;;;;;;5010012;28;20591;-72
2022/11/01 09:47:45;;;;;;;2.13;1.20;;;18.10;79.00;;;;;;5011536;28;20453;-75
2022/11/01 09:50:22;;;;;;;1.83;1.07;;;18.10;78.90;;;;;;5006466;28;20433;-72
2022/11/01 09:52:49;;;;;;;1.60;1.00;;;18.20;78.40;;;;;;5010524;28;20453;-72
2022/11/01 09:55:18;;;;;;;2.40;1.10;;;18.20;77.40;;;;;;5014664;28;20422;-72
2022/11/01 09:57:50;;;;;;;1.43;1.00;;;18.00;77.30;;;;;;5014371;28;20451;-72
2022/11/01 10:00:19;;;;;;;1.53;0.90;;;18.10;77.80;;;;;;5007658;28;20442;-72
2022/11/01 10:03:15;;;;;;;2.13;1.10;;;18.30;77.60;;;;;;5010807;28;20474;-73
2022/11/01 10:05:55;;;;;;;2.00;1.40;;;18.50;76.70;;;;;;5015040;28;20417;-73
2022/11/01 10:08:34;;;;;;;1.77;1.10;;;18.70;75.90;;;;;;5010205;28;20533;-73
2022/11/01 10:11:18;;;;;;;1.80;1.30;;;18.80;74.90;;;;;;5011626;28;20473;-74
2022/11/01 10:14:21;;;;;;;2.50;1.10;;;18.90;74.00;;;;;;5006774;28;21018;-73
2022/11/01 10:17:13;;;;;;;1.20;0.97;;;18.90;73.90;;;;;;5010555;28;20515;-74
2022/11/01 10:19:41;;;;;;;1.60;1.10;;;19.00;74.00;;;;;;5008309;28;20520;-73
2022/11/01 10:22:18;;;;;;;1.40;1.30;;;19.10;72.90;;;;;;5009962;28;20431;-74
2022/11/01 10:24:50;;;;;;;1.90;1.07;;;19.10;72.60;;;;;;5010201;28;20938;-72
2022/11/01 10:27:39;;;;;;;2.50;1.67;;;19.30;71.70;;;;;;5009959;28;20608;-69
2022/11/01 10:30:14;;;;;;;3.30;1.37;;;19.30;70.70;;;;;;5006078;28;20416;-71
2022/11/01 10:32:48;;;;;;;2.40;1.47;;;19.40;70.50;;;;;;5006285;28;20815;-71
2022/11/01 10:35:25;;;;;;;2.13;1.33;;;19.30;70.80;;;;;;5010231;28;20427;-72
2022/11/01 10:37:58;;;;;;;2.60;1.60;;;19.10;71.40;;;;;;5005095;28;20454;-71
2022/11/01 10:40:31;;;;;;;3.00;1.40;;;19.10;71.60;;;;;;5008522;28;20426;-72
2022/11/01 10:42:57;;;;;;;2.83;1.30;;;19.40;70.40;;;;;;5008095;28;20483;-71
2022/11/01 10:45:23;;;;;;;2.13;1.10;;;19.60;70.10;;;;;;5014543;28;20544;-73
2022/11/01 10:47:55;;;;;;;3.73;1.40;;;19.80;69.50;;;;;;5015414;28;20857;-72
2022/11/01 10:50:24;;;;;;;3.50;1.77;;;19.60;69.10;;;;;;5005765;28;20437;-72
2022/11/01 10:52:58;;;;;;;1.97;1.30;;;19.40;69.70;;;;;;5006426;28;20546;-72
2022/11/01 10:55:48;;;;;;;3.17;1.50;;;19.20;69.40;;;;;;5007154;28;20524;-72
2022/11/01 10:58:42;;;;;;;5.47;1.77;;;19.00;69.70;;;;;;5010675;28;20433;-72
2022/11/01 11:01:14;;;;;;;2.63;1.27;;;18.90;69.90;;;;;;5002085;28;20449;-70
2022/11/01 11:03:42;;;;;;;1.77;1.47;;;18.80;70.10;;;;;;5003316;28;20457;-71
2022/11/01 11:06:10;;;;;;;2.60;1.40;;;18.90;70.10;;;;;;5006934;28;20476;-71
2022/11/01 11:08:38;;;;;;;2.50;1.53;;;19.00;70.20;;;;;;5016138;28;20471;-72
2022/11/01 11:11:11;;;;;;;4.80;1.63;;;19.00;70.10;;;;;;5022988;28;20411;-72
2022/11/01 11:13:41;;;;;;;2.70;1.50;;;19.00;69.80;;;;;;5016430;28;20461;-72
2022/11/01 11:16:18;;;;;;;2.90;1.83;;;18.90;70.40;;;;;;5010948;28;20430;-71
2022/11/01 11:18:59;;;;;;;2.83;1.40;;;18.80;70.80;;;;;;5010790;28;20425;-72
2022/11/01 11:21:25;;;;;;;2.20;1.60;;;18.80;69.80;;;;;;5008962;28;20840;-72
2022/11/01 11:23:50;;;;;;;1.70;1.40;;;18.80;70.50;;;;;;5008515;28;20527;-71
2022/11/01 11:26:19;;;;;;;1.83;1.40;;;18.90;70.80;;;;;;5009081;28;20203;-71
2022/11/01 11:28:48;;;;;;;3.13;1.77;;;19.10;70.20;;;;;;5005821;28;20932;-71
2022/11/01 11:31:25;;;;;;;4.53;1.73;;;19.20;70.10;;;;;;5004281;28;20424;-72
2022/11/01 11:34:11;;;;;;;3.23;1.97;;;19.10;70.50;;;;;;5004857;28;20572;-71
2022/11/01 11:36:42;;;;;;;3.93;2.00;;;19.20;70.10;;;;;;5005730;28;20818;-71
2022/11/01 11:39:28;;;;;;;2.20;1.57;;;19.20;70.20;;;;;;5004977;28;20437;-71
2022/11/01 11:42:16;;;;;;;7.73;1.97;;;19.30;70.40;;;;;;5003605;28;20460;-70
2022/11/01 11:44:50;;;;;;;2.83;1.40;;;19.60;69.50;;;;;;5006299;28;20437;-71
2022/11/01 11:47:27;;;;;;;1.73;1.40;;;19.60;68.90;;;;;;5005971;28;21196;-71
2022/11/01 11:49:56;;;;;;;1.47;1.13;;;19.70;68.80;;;;;;5007753;28;20432;-70
2022/11/01 11:52:37;;;;;;;2.70;1.40;;;19.50;69.40;;;;;;5008591;28;21118;-70
2022/11/01 11:55:03;;;;;;;2.70;1.50;;;19.50;69.50;;;;;;5005429;28;20466;-74
2022/11/01 11:57:29;;;;;;;2.57;1.00;;;19.50;69.70;;;;;;5013171;28;20478;-76
2022/11/01 12:00:05;;;;;;;1.57;1.40;;;19.40;69.50;;;;;;5008455;28;20454;-74
2022/11/01 12:02:40;;;;;;;3.70;2.30;;;19.30;69.50;;;;;;5008703;28;20261;-75
2022/11/01 12:05:16;;;;;;;3.10;1.67;;;19.20;69.80;;;;;;5007649;28;20925;-71
2022/11/01 12:07:51;;;;;;;2.83;1.53;;;19.20;69.50;;;;;;5008605;28;20535;-72
2022/11/01 12:10:30;;;;;;;2.90;1.80;;;19.10;69.80;;;;;;5009513;28;20766;-72
2022/11/01 12:12:55;;;;;;;4.70;2.20;;;19.10;69.90;;;;;;5004988;28;20456;-73
2022/11/01 12:15:33;;;;;;;6.07;2.83;;;19.10;70.10;;;;;;5009420;28;20429;-73
2022/11/01 12:18:16;;;;;;;3.23;1.60;;;19.20;70.10;;;;;;5010882;28;20290;-72
2022/11/01 12:20:47;;;;;;;5.03;1.70;;;19.20;69.80;;;;;;5009512;28;20924;-72
2022/11/01 12:23:34;;;;;;;3.40;2.00;;;19.20;69.90;;;;;;5008112;28;20472;-71
2022/11/01 12:26:04;;;;;;;2.90;1.77;;;19.20;70.40;;;;;;5004923;28;20434;-71
2022/11/01 12:28:36;;;;;;;3.47;1.90;;;19.30;70.20;;;;;;5011875;28;20446;-71
2022/11/01 12:31:16;;;;;;;6.83;2.60;;;19.40;68.80;;;;;;5003598;28;20511;-71
2022/11/01 12:34:05;;;;;;;4.33;2.47;;;19.30;69.20;;;;;;5006510;28;20481;-70
2022/11/01 12:36:42;;;;;;;12.13;2.33;;;18.40;73.70;;;;;;5011218;28;20767;-72
2022/11/01 12:39:39;;;;;;;5.50;2.53;;;17.80;77.00;;;;;;5011712;28;20431;-71
2022/11/01 12:42:04;;;;;;;5.90;2.30;;;17.30;79.30;;;;;;5011101;28;20458;-70
2022/11/01 12:44:40;;;;;;;6.37;2.33;;;17.10;80.80;;;;;;5012188;28;20440;-71
2022/11/01 12:47:22;;;;;;;6.80;2.50;;;17.20;81.10;;;;;;5012093;28;20209;-72
2022/11/01 12:50:13;;;;;;;6.00;2.53;;;17.40;79.70;;;;;;5009615;28;20528;-71
2022/11/01 12:53:11;;;;;;;6.37;2.90;;;17.30;79.70;;;;;;5004852;28;20464;-72
2022/11/01 12:55:38;;;;;;;7.67;2.53;;;17.10;80.30;;;;;;5009903;28;20417;-70
2022/11/01 12:58:09;;;;;;;6.63;2.50;;;17.00;81.10;;;;;;5006793;28;20443;-72
2022/11/01 13:00:57;;;;;;;5.67;2.37;;;17.10;80.20;;;;;;5006177;28;20432;-71
2022/11/01 13:03:31;;;;;;;7.97;2.47;;;16.90;80.50;;;;;;5000255;28;20472;-72